sensor_id;sensor_type;location;lat;lon;timestamp;temperature;humidity
11838;DHT22;5978;51.020;6.764;2023-04-25T00:01:25;7.50;99.90
11838;DHT22;5978;51.020;6.764;2023-04-25T00:03:50;7.40;99.90
11838;DHT22;5978;51.020;6.764;2023-04-25T00:06:16;7.40;99.90
11838;DHT22;5978;51.020;6.764;2023-04-25T00:08:43;7.40;99.90
11838;DHT22;5978;51.020;6.764;2023-04-25T00:11:09;7.30;99.90
11838;DHT22;5978;51.020;6.764;2023-04-25T00:13:35;7.30;99.90
11838;DHT22;5978;51.020;6.764;2023-04-25T00:16:01;7.20;99.90
11838;DHT22;5978;51.020;6.764;2023-04-25T00:18:28;7.20;99.90
11838;DHT22;5978;51.020;6.764;2023-04-25T00:20:55;7.20;99.90
11838;DHT22;5978;51.020;6.764;2023-04-25T00:23:21;7.20;99.90
11838;DHT22;5978;51.020;6.764;2023-04-25T00:25:49;7.30;99.90
11838;DHT22;5978;51.020;6.764;2023-04-25T00:28:15;7.20;99.90
11838;DHT22;5978;51.020;6.764;2023-04-25T00:30:41;7.20;99.90
11838;DHT22;5978;51.020;6.764;2023-04-25T00:33:08;7.10;99.90
11838;DHT22;5978;51.020;6.764;2023-04-25T00:35:34;7.20;99.90
11838;DHT22;5978;51.020;6.764;2023-04-25T00:38:00;7.20;99.90
11838;DHT22;5978;51.020;6.764;2023-04-25T00:40:27;7.10;99.90
11838;DHT22;5978;51.020;6.764;2023-04-25T00:42:53;7.10;99.90
11838;DHT22;5978;51.020;6.764;2023-04-25T00:45:19;7.10;99.90
11838;DHT22;5978;51.020;6.764;2023-04-25T00:47:46;7.10;99.90
11838;DHT22;5978;51.020;6.764;2023-04-25T00:50:13;7.10;99.90
11838;DHT22;5978;51.020;6.764;2023-04-25T00:52:43;7.00;99.90
11838;DHT22;5978;51.020;6.764;2023-04-25T00:55:10;6.90;99.90
11838;DHT22;5978;51.020;6.764;2023-04-25T00:57:36;6.90;99.90
11838;DHT22;5978;51.020;6.764;2023-04-25T01:00:04;6.90;99.90
11838;DHT22;5978;51.020;6.764;2023-04-25T01:02:32;6.90;99.90
11838;DHT22;5978;51.020;6.764;2023-04-25T01:04:58;6.80;99.90
11838;DHT22;5978;51.020;6.764;2023-04-25T01:07:24;6.80;99.90
11838;DHT22;5978;51.020;6.764;2023-04-25T01:09:51;6.80;99.90
11838;DHT22;5978;51.020;6.764;2023-04-25T01:12:18;6.80;99.90
11838;DHT22;5978;51.020;6.764;2023-04-25T01:14:43;6.80;99.90
11838;DHT22;5978;51.020;6.764;2023-04-25T01:17:10;6.80;99.90
11838;DHT22;5978;51.020;6.764;2023-04-25T01:19:36;6.80;99.90
11838;DHT22;5978;51.020;6.764;2023-04-25T01:22:03;6.80;99.90
11838;DHT22;5978;51.020;6.764;2023-04-25T01:24:30;6.70;99.90
11838;DHT22;5978;51.020;6.764;2023-04-25T01:26:58;6.80;99.90
11838;DHT22;5978;51.020;6.764;2023-04-25T01:29:24;6.70;99.90
11838;DHT22;5978;51.020;6.764;2023-04-25T01:31:51;6.70;99.90
11838;DHT22;5978;51.020;6.764;2023-04-25T01:34:18;6.70;99.90
11838;DHT22;5978;51.020;6.764;2023-04-25T01:36:44;6.60;99.90
11838;DHT22;5978;51.020;6.764;2023-04-25T01:39:10;6.60;99.90
11838;DHT22;5978;51.020;6.764;2023-04-25T01:41:36;6.60;99.90
11838;DHT22;5978;51.020;6.764;2023-04-25T01:44:02;6.60;99.90
11838;DHT22;5978;51.020;6.764;2023-04-25T01:46:29;6.60;99.90
11838;DHT22;5978;51.020;6.764;2023-04-25T01:48:55;6.60;99.90
11838;DHT22;5978;51.020;6.764;2023-04-25T01:51:21;6.60;99.90
11838;DHT22;5978;51.020;6.764;2023-04-25T01:53:46;6.60;99.90
11838;DHT22;5978;51.020;6.764;2023-04-25T01:56:12;6.60;99.90
11838;DHT22;5978;51.020;6.764;2023-04-25T01:58:38;6.60;99.90
11838;DHT22;5978;51.020;6.764;2023-04-25T02:01:04;6.60;99.90
11838;DHT22;5978;51.020;6.764;2023-04-25T02:03:31;6.60;99.90
11838;DHT22;5978;51.020;6.764;2023-04-25T02:05:57;6.60;99.90
11838;DHT22;5978;51.020;6.764;2023-04-25T02:08:23;6.60;99.90
11838;DHT22;5978;51.020;6.764;2023-04-25T02:10:49;6.70;99.90
11838;DHT22;5978;51.020;6.764;2023-04-25T02:13:14;6.80;99.90
11838;DHT22;5978;51.020;6.764;2023-04-25T02:15:40;6.80;99.90
11838;DHT22;5978;51.020;6.764;2023-04-25T02:18:06;6.90;99.90
11838;DHT22;5978;51.020;6.764;2023-04-25T02:20:32;7.00;99.90
11838;DHT22;5978;51.020;6.764;2023-04-25T02:22:58;7.00;99.90
11838;DHT22;5978;51.020;6.764;2023-04-25T02:25:24;7.10;99.90
11838;DHT22;5978;51.020;6.764;2023-04-25T02:27:50;7.10;99.90
11838;DHT22;5978;51.020;6.764;2023-04-25T02:30:17;7.10;99.90
11838;DHT22;5978;51.020;6.764;2023-04-25T02:32:42;7.20;99.90
11838;DHT22;5978;51.020;6.764;2023-04-25T02:35:09;7.20;99.90
11838;DHT22;5978;51.020;6.764;2023-04-25T02:37:36;7.30;99.90
11838;DHT22;5978;51.020;6.764;2023-04-25T02:40:02;7.30;99.90
11838;DHT22;5978;51.020;6.764;2023-04-25T02:42:29;7.30;99.90
11838;DHT22;5978;51.020;6.764;2023-04-25T02:44:55;7.30;99.90
11838;DHT22;5978;51.020;6.764;2023-04-25T02:47:21;7.30;99.90
11838;DHT22;5978;51.020;6.764;2023-04-25T02:49:47;7.30;99.90
11838;DHT22;5978;51.020;6.764;2023-04-25T02:52:13;7.30;99.90
11838;DHT22;5978;51.020;6.764;2023-04-25T02:54:40;7.20;99.90
11838;DHT22;5978;51.020;6.764;2023-04-25T02:57:06;7.20;99.90
11838;DHT22;5978;51.020;6.764;2023-04-25T02:59:31;7.20;99.90
11838;DHT22;5978;51.020;6.764;2023-04-25T03:01:57;7.20;99.90
11838;DHT22;5978;51.020;6.764;2023-04-25T03:04:23;7.20;99.90
11838;DHT22;5978;51.020;6.764;2023-04-25T03:06:50;7.20;99.90
11838;DHT22;5978;51.020;6.764;2023-04-25T03:09:16;7.30;99.90
11838;DHT22;5978;51.020;6.764;2023-04-25T03:11:41;7.30;99.90
11838;DHT22;5978;51.020;6.764;2023-04-25T03:14:07;7.30;99.90
11838;DHT22;5978;51.020;6.764;2023-04-25T03:16:33;7.30;99.90
11838;DHT22;5978;51.020;6.764;2023-04-25T03:18:59;7.20;99.90
11838;DHT22;5978;51.020;6.764;2023-04-25T03:21:25;7.20;99.90
11838;DHT22;5978;51.020;6.764;2023-04-25T03:23:52;7.30;99.90
11838;DHT22;5978;51.020;6.764;2023-04-25T03:26:17;7.30;99.90
11838;DHT22;5978;51.020;6.764;2023-04-25T03:28:43;7.30;99.90
11838;DHT22;5978;51.020;6.764;2023-04-25T03:31:09;7.30;99.90
11838;DHT22;5978;51.020;6.764;2023-04-25T03:33:35;7.30;99.90
11838;DHT22;5978;51.020;6.764;2023-04-25T03:36:01;7.30;99.90
11838;DHT22;5978;51.020;6.764;2023-04-25T03:38:26;7.30;99.90
11838;DHT22;5978;51.020;6.764;2023-04-25T03:40:52;7.30;99.90
11838;DHT22;5978;51.020;6.764;2023-04-25T03:43:18;7.30;99.90
11838;DHT22;5978;51.020;6.764;2023-04-25T03:45:44;7.40;99.90
11838;DHT22;5978;51.020;6.764;2023-04-25T03:48:10;7.40;99.90
11838;DHT22;5978;51.020;6.764;2023-04-25T03:50:35;7.30;99.90
11838;DHT22;5978;51.020;6.764;2023-04-25T03:53:01;7.30;99.90
11838;DHT22;5978;51.020;6.764;2023-04-25T03:55:27;7.30;99.90
11838;DHT22;5978;51.020;6.764;2023-04-25T03:57:53;7.30;99.90
11838;DHT22;5978;51.020;6.764;2023-04-25T04:00:18;7.30;99.90
11838;DHT22;5978;51.020;6.764;2023-04-25T04:02:44;7.30;99.90
11838;DHT22;5978;51.020;6.764;2023-04-25T04:05:10;7.30;99.90
11838;DHT22;5978;51.020;6.764;2023-04-25T04:07:36;7.30;99.90
11838;DHT22;5978;51.020;6.764;2023-04-25T04:10:09;7.30;99.90
11838;DHT22;5978;51.020;6.764;2023-04-25T04:12:35;7.30;99.90
11838;DHT22;5978;51.020;6.764;2023-04-25T04:15:05;7.30;99.90
11838;DHT22;5978;51.020;6.764;2023-04-25T04:17:31;7.30;99.90
11838;DHT22;5978;51.020;6.764;2023-04-25T04:19:57;7.30;99.90
11838;DHT22;5978;51.020;6.764;2023-04-25T04:22:23;7.20;99.90
11838;DHT22;5978;51.020;6.764;2023-04-25T04:24:50;7.30;99.90
11838;DHT22;5978;51.020;6.764;2023-04-25T04:27:19;7.30;99.90
11838;DHT22;5978;51.020;6.764;2023-04-25T04:29:46;7.30;99.90
11838;DHT22;5978;51.020;6.764;2023-04-25T04:32:14;7.30;99.90
11838;DHT22;5978;51.020;6.764;2023-04-25T04:34:40;7.30;99.90
11838;DHT22;5978;51.020;6.764;2023-04-25T04:37:06;7.30;99.90
11838;DHT22;5978;51.020;6.764;2023-04-25T04:39:33;7.40;99.90
11838;DHT22;5978;51.020;6.764;2023-04-25T04:41:59;7.30;99.90
11838;DHT22;5978;51.020;6.764;2023-04-25T04:44:27;7.30;99.90
11838;DHT22;5978;51.020;6.764;2023-04-25T04:46:54;7.30;99.90
11838;DHT22;5978;51.020;6.764;2023-04-25T04:49:21;7.30;99.90
11838;DHT22;5978;51.020;6.764;2023-04-25T04:51:46;7.40;99.90
11838;DHT22;5978;51.020;6.764;2023-04-25T04:54:13;7.40;99.90
11838;DHT22;5978;51.020;6.764;2023-04-25T04:56:39;7.40;99.90
11838;DHT22;5978;51.020;6.764;2023-04-25T04:59:05;7.40;99.90
11838;DHT22;5978;51.020;6.764;2023-04-25T05:01:30;7.50;99.90
11838;DHT22;5978;51.020;6.764;2023-04-25T05:03:56;7.40;99.90
11838;DHT22;5978;51.020;6.764;2023-04-25T05:06:27;7.40;99.90
11838;DHT22;5978;51.020;6.764;2023-04-25T05:08:55;7.60;99.90
11838;DHT22;5978;51.020;6.764;2023-04-25T05:11:22;7.60;99.90
11838;DHT22;5978;51.020;6.764;2023-04-25T05:13:53;7.50;99.90
11838;DHT22;5978;51.020;6.764;2023-04-25T05:16:19;7.60;99.90
11838;DHT22;5978;51.020;6.764;2023-04-25T05:18:46;7.60;99.90
11838;DHT22;5978;51.020;6.764;2023-04-25T05:21:12;7.70;99.90
11838;DHT22;5978;51.020;6.764;2023-04-25T05:23:38;7.60;99.90
11838;DHT22;5978;51.020;6.764;2023-04-25T05:26:03;7.70;99.90
11838;DHT22;5978;51.020;6.764;2023-04-25T05:28:29;7.80;99.90
11838;DHT22;5978;51.020;6.764;2023-04-25T05:30:55;7.80;99.90
11838;DHT22;5978;51.020;6.764;2023-04-25T05:33:21;7.90;99.90
11838;DHT22;5978;51.020;6.764;2023-04-25T05:35:48;7.90;99.90
11838;DHT22;5978;51.020;6.764;2023-04-25T05:38:13;7.90;99.90
11838;DHT22;5978;51.020;6.764;2023-04-25T05:40:39;8.00;99.90
11838;DHT22;5978;51.020;6.764;2023-04-25T05:43:05;8.00;99.90
11838;DHT22;5978;51.020;6.764;2023-04-25T05:45:31;8.10;99.90
11838;DHT22;5978;51.020;6.764;2023-04-25T05:47:56;8.10;99.90
11838;DHT22;5978;51.020;6.764;2023-04-25T05:50:22;8.10;99.90
11838;DHT22;5978;51.020;6.764;2023-04-25T05:52:48;8.10;99.90
11838;DHT22;5978;51.020;6.764;2023-04-25T05:55:14;8.10;99.90
11838;DHT22;5978;51.020;6.764;2023-04-25T05:57:40;8.20;99.90
11838;DHT22;5978;51.020;6.764;2023-04-25T06:00:10;8.20;99.90
11838;DHT22;5978;51.020;6.764;2023-04-25T06:02:37;8.40;99.90
11838;DHT22;5978;51.020;6.764;2023-04-25T06:05:03;8.60;99.90
11838;DHT22;5978;51.020;6.764;2023-04-25T06:07:29;8.70;99.90
11838;DHT22;5978;51.020;6.764;2023-04-25T06:09:58;8.80;99.90
11838;DHT22;5978;51.020;6.764;2023-04-25T06:12:23;8.80;99.90
11838;DHT22;5978;51.020;6.764;2023-04-25T06:14:49;8.90;99.90
11838;DHT22;5978;51.020;6.764;2023-04-25T06:17:15;9.00;99.90
11838;DHT22;5978;51.020;6.764;2023-04-25T06:19:41;9.00;99.90
11838;DHT22;5978;51.020;6.764;2023-04-25T06:22:07;9.00;99.90
11838;DHT22;5978;51.020;6.764;2023-04-25T06:24:33;9.00;99.90
11838;DHT22;5978;51.020;6.764;2023-04-25T06:27:00;9.10;99.90
11838;DHT22;5978;51.020;6.764;2023-04-25T06:29:26;9.10;99.90
11838;DHT22;5978;51.020;6.764;2023-04-25T06:31:51;9.20;99.90
11838;DHT22;5978;51.020;6.764;2023-04-25T06:34:17;9.20;99.90
11838;DHT22;5978;51.020;6.764;2023-04-25T06:36:43;9.30;99.90
11838;DHT22;5978;51.020;6.764;2023-04-25T06:39:10;9.30;99.90
11838;DHT22;5978;51.020;6.764;2023-04-25T06:41:36;9.40;99.90
11838;DHT22;5978;51.020;6.764;2023-04-25T06:44:02;9.30;99.90
11838;DHT22;5978;51.020;6.764;2023-04-25T06:46:28;9.40;99.90
11838;DHT22;5978;51.020;6.764;2023-04-25T06:48:54;9.50;99.90
11838;DHT22;5978;51.020;6.764;2023-04-25T06:51:20;9.70;99.90
11838;DHT22;5978;51.020;6.764;2023-04-25T06:53:46;9.70;99.90
11838;DHT22;5978;51.020;6.764;2023-04-25T06:56:12;9.90;99.90
11838;DHT22;5978;51.020;6.764;2023-04-25T06:58:37;10.00;99.90
11838;DHT22;5978;51.020;6.764;2023-04-25T07:01:03;9.90;99.90
11838;DHT22;5978;51.020;6.764;2023-04-25T07:03:29;9.90;99.90
11838;DHT22;5978;51.020;6.764;2023-04-25T07:05:55;9.90;99.90
11838;DHT22;5978;51.020;6.764;2023-04-25T07:08:21;9.90;99.90
11838;DHT22;5978;51.020;6.764;2023-04-25T07:10:47;9.90;99.90
11838;DHT22;5978;51.020;6.764;2023-04-25T07:13:12;9.90;99.90
11838;DHT22;5978;51.020;6.764;2023-04-25T07:15:38;10.00;99.90
11838;DHT22;5978;51.020;6.764;2023-04-25T07:18:04;10.10;99.90
11838;DHT22;5978;51.020;6.764;2023-04-25T07:20:30;10.10;99.90
11838;DHT22;5978;51.020;6.764;2023-04-25T07:22:56;10.10;99.90
11838;DHT22;5978;51.020;6.764;2023-04-25T07:25:22;10.10;99.90
11838;DHT22;5978;51.020;6.764;2023-04-25T07:27:48;10.10;99.90
11838;DHT22;5978;51.020;6.764;2023-04-25T07:30:14;10.10;99.90
11838;DHT22;5978;51.020;6.764;2023-04-25T07:32:40;10.10;99.90
11838;DHT22;5978;51.020;6.764;2023-04-25T07:35:06;10.20;99.90
11838;DHT22;5978;51.020;6.764;2023-04-25T07:37:33;10.30;99.90
11838;DHT22;5978;51.020;6.764;2023-04-25T07:39:59;10.40;99.90
11838;DHT22;5978;51.020;6.764;2023-04-25T07:42:25;10.50;99.90
11838;DHT22;5978;51.020;6.764;2023-04-25T07:44:51;10.60;99.90
11838;DHT22;5978;51.020;6.764;2023-04-25T07:47:17;10.80;99.90
11838;DHT22;5978;51.020;6.764;2023-04-25T07:49:44;10.90;99.90
11838;DHT22;5978;51.020;6.764;2023-04-25T07:52:11;10.90;99.90
11838;DHT22;5978;51.020;6.764;2023-04-25T07:54:37;11.10;99.90
11838;DHT22;5978;51.020;6.764;2023-04-25T07:57:03;11.10;99.90
11838;DHT22;5978;51.020;6.764;2023-04-25T07:59:29;11.20;99.90
11838;DHT22;5978;51.020;6.764;2023-04-25T08:01:55;11.20;99.90
11838;DHT22;5978;51.020;6.764;2023-04-25T08:04:23;11.30;99.90
11838;DHT22;5978;51.020;6.764;2023-04-25T08:06:49;11.30;99.90
11838;DHT22;5978;51.020;6.764;2023-04-25T08:09:15;11.40;99.90
11838;DHT22;5978;51.020;6.764;2023-04-25T08:11:42;11.40;99.90
11838;DHT22;5978;51.020;6.764;2023-04-25T08:14:08;11.30;99.90
11838;DHT22;5978;51.020;6.764;2023-04-25T08:16:34;11.40;99.90
11838;DHT22;5978;51.020;6.764;2023-04-25T08:19:00;11.60;99.90
11838;DHT22;5978;51.020;6.764;2023-04-25T08:21:26;11.70;99.90
11838;DHT22;5978;51.020;6.764;2023-04-25T08:23:55;11.90;99.90
11838;DHT22;5978;51.020;6.764;2023-04-25T08:26:22;12.00;99.90
11838;DHT22;5978;51.020;6.764;2023-04-25T08:28:48;12.20;99.90
11838;DHT22;5978;51.020;6.764;2023-04-25T08:31:14;12.10;99.90
11838;DHT22;5978;51.020;6.764;2023-04-25T08:33:40;12.30;99.90
11838;DHT22;5978;51.020;6.764;2023-04-25T08:36:06;12.40;99.90
11838;DHT22;5978;51.020;6.764;2023-04-25T08:38:32;12.50;99.90
11838;DHT22;5978;51.020;6.764;2023-04-25T08:40:59;12.60;99.90
11838;DHT22;5978;51.020;6.764;2023-04-25T08:43:26;12.40;99.90
11838;DHT22;5978;51.020;6.764;2023-04-25T08:45:58;12.80;99.90
11838;DHT22;5978;51.020;6.764;2023-04-25T08:48:27;13.10;99.90
11838;DHT22;5978;51.020;6.764;2023-04-25T08:50:55;13.10;99.90
11838;DHT22;5978;51.020;6.764;2023-04-25T08:53:31;12.70;99.90
11838;DHT22;5978;51.020;6.764;2023-04-25T08:55:58;12.50;99.90
11838;DHT22;5978;51.020;6.764;2023-04-25T08:58:25;12.30;99.90
11838;DHT22;5978;51.020;6.764;2023-04-25T09:00:52;12.20;99.90
11838;DHT22;5978;51.020;6.764;2023-04-25T09:03:18;12.10;99.90
11838;DHT22;5978;51.020;6.764;2023-04-25T09:05:44;12.20;99.90
11838;DHT22;5978;51.020;6.764;2023-04-25T09:08:10;12.10;99.90
11838;DHT22;5978;51.020;6.764;2023-04-25T09:10:37;12.00;99.90
11838;DHT22;5978;51.020;6.764;2023-04-25T09:13:11;12.20;99.90
11838;DHT22;5978;51.020;6.764;2023-04-25T09:16:01;12.30;99.90
11838;DHT22;5978;51.020;6.764;2023-04-25T09:18:30;12.50;99.90
11838;DHT22;5978;51.020;6.764;2023-04-25T09:21:05;12.60;99.90
11838;DHT22;5978;51.020;6.764;2023-04-25T09:23:43;12.40;99.90
11838;DHT22;5978;51.020;6.764;2023-04-25T09:26:09;12.30;99.90
11838;DHT22;5978;51.020;6.764;2023-04-25T09:28:35;12.30;99.90
11838;DHT22;5978;51.020;6.764;2023-04-25T09:31:03;12.30;99.90
11838;DHT22;5978;51.020;6.764;2023-04-25T09:33:33;12.40;99.90
11838;DHT22;5978;51.020;6.764;2023-04-25T09:36:06;12.60;99.90
11838;DHT22;5978;51.020;6.764;2023-04-25T09:38:46;12.70;99.90
11838;DHT22;5978;51.020;6.764;2023-04-25T09:41:12;12.70;99.90
11838;DHT22;5978;51.020;6.764;2023-04-25T09:43:38;12.60;99.90
11838;DHT22;5978;51.020;6.764;2023-04-25T09:46:09;12.40;99.90
11838;DHT22;5978;51.020;6.764;2023-04-25T09:48:35;11.90;99.90
11838;DHT22;5978;51.020;6.764;2023-04-25T09:53:34;11.30;99.90
11838;DHT22;5978;51.020;6.764;2023-04-25T09:56:04;11.30;99.90
11838;DHT22;5978;51.020;6.764;2023-04-25T09:58:31;11.20;99.90
11838;DHT22;5978;51.020;6.764;2023-04-25T10:01:01;11.10;99.90
11838;DHT22;5978;51.020;6.764;2023-04-25T10:03:32;11.20;99.90
11838;DHT22;5978;51.020;6.764;2023-04-25T10:06:01;11.40;99.90
11838;DHT22;5978;51.020;6.764;2023-04-25T10:08:36;11.70;99.90
11838;DHT22;5978;51.020;6.764;2023-04-25T10:11:04;12.10;99.90
11838;DHT22;5978;51.020;6.764;2023-04-25T10:13:30;12.20;99.90
11838;DHT22;5978;51.020;6.764;2023-04-25T10:16:01;12.40;99.90
11838;DHT22;5978;51.020;6.764;2023-04-25T10:18:27;12.50;99.90
11838;DHT22;5978;51.020;6.764;2023-04-25T10:20:55;12.90;99.90
11838;DHT22;5978;51.020;6.764;2023-04-25T10:23:21;13.40;99.90
11838;DHT22;5978;51.020;6.764;2023-04-25T10:25:52;13.80;98.00
11838;DHT22;5978;51.020;6.764;2023-04-25T10:28:19;14.10;93.90
11838;DHT22;5978;51.020;6.764;2023-04-25T10:30:57;13.90;96.40
11838;DHT22;5978;51.020;6.764;2023-04-25T10:33:34;13.30;99.90
11838;DHT22;5978;51.020;6.764;2023-04-25T10:36:09;12.80;99.90
11838;DHT22;5978;51.020;6.764;2023-04-25T10:38:36;12.30;99.90
11838;DHT22;5978;51.020;6.764;2023-04-25T10:41:09;11.80;99.90
11838;DHT22;5978;51.020;6.764;2023-04-25T10:43:40;11.50;99.90
11838;DHT22;5978;51.020;6.764;2023-04-25T10:46:17;11.40;99.90
11838;DHT22;5978;51.020;6.764;2023-04-25T10:51:24;11.40;99.90
11838;DHT22;5978;51.020;6.764;2023-04-25T10:54:08;11.40;99.90
11838;DHT22;5978;51.020;6.764;2023-04-25T10:56:42;11.50;99.90
11838;DHT22;5978;51.020;6.764;2023-04-25T10:59:19;11.80;99.90
11838;DHT22;5978;51.020;6.764;2023-04-25T11:01:51;12.00;99.90
11838;DHT22;5978;51.020;6.764;2023-04-25T11:04:43;12.30;99.90
11838;DHT22;5978;51.020;6.764;2023-04-25T11:07:33;12.60;99.90
11838;DHT22;5978;51.020;6.764;2023-04-25T11:10:04;12.90;99.90
11838;DHT22;5978;51.020;6.764;2023-04-25T11:12:31;13.10;99.90
11838;DHT22;5978;51.020;6.764;2023-04-25T11:15:06;13.50;99.10
11838;DHT22;5978;51.020;6.764;2023-04-25T11:17:33;14.00;98.00
11838;DHT22;5978;51.020;6.764;2023-04-25T11:19:59;14.60;92.90
11838;DHT22;5978;51.020;6.764;2023-04-25T11:22:27;14.40;87.90
11838;DHT22;5978;51.020;6.764;2023-04-25T11:24:53;14.60;86.90
11838;DHT22;5978;51.020;6.764;2023-04-25T11:27:19;14.40;80.80
11838;DHT22;5978;51.020;6.764;2023-04-25T11:29:46;14.20;77.30
11838;DHT22;5978;51.020;6.764;2023-04-25T11:32:15;14.30;75.00
11838;DHT22;5978;51.020;6.764;2023-04-25T11:34:43;14.20;74.70
11838;DHT22;5978;51.020;6.764;2023-04-25T11:37:09;14.20;71.40
11838;DHT22;5978;51.020;6.764;2023-04-25T11:39:37;14.30;72.50
11838;DHT22;5978;51.020;6.764;2023-04-25T11:42:04;14.90;76.10
11838;DHT22;5978;51.020;6.764;2023-04-25T11:44:30;16.20;78.40
11838;DHT22;5978;51.020;6.764;2023-04-25T11:46:55;17.50;75.00
11838;DHT22;5978;51.020;6.764;2023-04-25T11:49:21;18.60;66.20
11838;DHT22;5978;51.020;6.764;2023-04-25T11:51:48;18.70;60.50
11838;DHT22;5978;51.020;6.764;2023-04-25T11:54:14;19.00;58.40
11838;DHT22;5978;51.020;6.764;2023-04-25T11:56:44;19.60;57.00
11838;DHT22;5978;51.020;6.764;2023-04-25T11:59:10;19.60;56.60
11838;DHT22;5978;51.020;6.764;2023-04-25T12:01:38;19.60;55.30
11838;DHT22;5978;51.020;6.764;2023-04-25T12:04:19;19.30;56.10
11838;DHT22;5978;51.020;6.764;2023-04-25T12:06:46;18.60;55.60
11838;DHT22;5978;51.020;6.764;2023-04-25T12:09:15;18.30;56.20
11838;DHT22;5978;51.020;6.764;2023-04-25T12:11:44;17.70;56.20
11838;DHT22;5978;51.020;6.764;2023-04-25T12:14:11;17.10;56.40
11838;DHT22;5978;51.020;6.764;2023-04-25T12:16:44;16.60;57.40
11838;DHT22;5978;51.020;6.764;2023-04-25T12:19:14;15.60;58.10
11838;DHT22;5978;51.020;6.764;2023-04-25T12:21:40;15.20;59.20
11838;DHT22;5978;51.020;6.764;2023-04-25T12:27:02;14.40;64.10
11838;DHT22;5978;51.020;6.764;2023-04-25T12:29:30;14.40;66.10
11838;DHT22;5978;51.020;6.764;2023-04-25T12:31:56;14.20;69.60
11838;DHT22;5978;51.020;6.764;2023-04-25T12:34:23;14.10;72.60
11838;DHT22;5978;51.020;6.764;2023-04-25T12:36:50;14.20;73.20
11838;DHT22;5978;51.020;6.764;2023-04-25T12:39:23;15.20;75.40
11838;DHT22;5978;51.020;6.764;2023-04-25T12:41:50;16.20;71.60
11838;DHT22;5978;51.020;6.764;2023-04-25T12:44:16;16.40;68.00
11838;DHT22;5978;51.020;6.764;2023-04-25T12:46:42;16.00;68.50
11838;DHT22;5978;51.020;6.764;2023-04-25T12:49:08;15.50;69.60
11838;DHT22;5978;51.020;6.764;2023-04-25T12:51:35;15.30;69.90
11838;DHT22;5978;51.020;6.764;2023-04-25T12:54:01;15.40;70.80
11838;DHT22;5978;51.020;6.764;2023-04-25T12:56:27;16.40;69.80
11838;DHT22;5978;51.020;6.764;2023-04-25T12:58:54;18.50;64.50
11838;DHT22;5978;51.020;6.764;2023-04-25T13:01:20;19.80;58.20
11838;DHT22;5978;51.020;6.764;2023-04-25T13:03:46;19.20;53.80
11838;DHT22;5978;51.020;6.764;2023-04-25T13:06:13;20.10;54.40
11838;DHT22;5978;51.020;6.764;2023-04-25T13:08:39;20.60;51.20
11838;DHT22;5978;51.020;6.764;2023-04-25T13:11:05;21.20;51.10
11838;DHT22;5978;51.020;6.764;2023-04-25T13:13:31;22.20;49.80
11838;DHT22;5978;51.020;6.764;2023-04-25T13:15:58;22.80;46.80
11838;DHT22;5978;51.020;6.764;2023-04-25T13:18:24;22.70;46.50
11838;DHT22;5978;51.020;6.764;2023-04-25T13:20:53;23.40;46.00
11838;DHT22;5978;51.020;6.764;2023-04-25T13:23:19;23.40;46.50
11838;DHT22;5978;51.020;6.764;2023-04-25T13:25:46;24.20;45.60
11838;DHT22;5978;51.020;6.764;2023-04-25T13:28:12;24.30;45.20
11838;DHT22;5978;51.020;6.764;2023-04-25T13:30:37;23.30;43.30
11838;DHT22;5978;51.020;6.764;2023-04-25T13:33:03;22.70;43.70
11838;DHT22;5978;51.020;6.764;2023-04-25T13:35:30;23.50;44.90
11838;DHT22;5978;51.020;6.764;2023-04-25T13:37:56;24.10;43.90
11838;DHT22;5978;51.020;6.764;2023-04-25T13:40:22;24.20;42.80
11838;DHT22;5978;51.020;6.764;2023-04-25T13:42:48;23.30;42.40
11838;DHT22;5978;51.020;6.764;2023-04-25T13:45:13;23.20;43.80
11838;DHT22;5978;51.020;6.764;2023-04-25T13:47:40;23.90;45.50
11838;DHT22;5978;51.020;6.764;2023-04-25T13:50:06;24.60;43.80
11838;DHT22;5978;51.020;6.764;2023-04-25T13:52:33;23.30;42.40
11838;DHT22;5978;51.020;6.764;2023-04-25T13:54:59;21.10;42.60
11838;DHT22;5978;51.020;6.764;2023-04-25T13:57:25;19.40;44.70
11838;DHT22;5978;51.020;6.764;2023-04-25T13:59:51;19.60;45.30
11838;DHT22;5978;51.020;6.764;2023-04-25T14:02:17;21.00;45.20
11838;DHT22;5978;51.020;6.764;2023-04-25T14:04:43;22.80;44.00
11838;DHT22;5978;51.020;6.764;2023-04-25T14:07:09;23.00;42.30
11838;DHT22;5978;51.020;6.764;2023-04-25T14:09:36;22.70;41.70
11838;DHT22;5978;51.020;6.764;2023-04-25T14:12:02;22.90;42.20
11838;DHT22;5978;51.020;6.764;2023-04-25T14:14:28;22.70;42.60
11838;DHT22;5978;51.020;6.764;2023-04-25T14:16:54;23.00;43.70
11838;DHT22;5978;51.020;6.764;2023-04-25T14:19:21;21.80;43.30
11838;DHT22;5978;51.020;6.764;2023-04-25T14:21:47;20.50;45.20
11838;DHT22;5978;51.020;6.764;2023-04-25T14:24:15;18.80;47.30
11838;DHT22;5978;51.020;6.764;2023-04-25T14:26:41;17.30;48.60
11838;DHT22;5978;51.020;6.764;2023-04-25T14:29:08;16.70;50.30
11838;DHT22;5978;51.020;6.764;2023-04-25T14:31:34;16.00;51.50
11838;DHT22;5978;51.020;6.764;2023-04-25T14:34:01;15.70;52.90
11838;DHT22;5978;51.020;6.764;2023-04-25T14:36:30;15.30;53.70
11838;DHT22;5978;51.020;6.764;2023-04-25T14:38:56;15.20;55.20
11838;DHT22;5978;51.020;6.764;2023-04-25T14:41:22;15.10;55.50
11838;DHT22;5978;51.020;6.764;2023-04-25T14:43:48;15.20;56.70
11838;DHT22;5978;51.020;6.764;2023-04-25T14:46:14;17.00;58.20
11838;DHT22;5978;51.020;6.764;2023-04-25T14:48:40;18.10;56.00
11838;DHT22;5978;51.020;6.764;2023-04-25T14:51:06;18.00;54.60
11838;DHT22;5978;51.020;6.764;2023-04-25T14:53:32;18.20;53.60
11838;DHT22;5978;51.020;6.764;2023-04-25T14:55:58;20.00;53.10
11838;DHT22;5978;51.020;6.764;2023-04-25T14:58:24;21.00;50.20
11838;DHT22;5978;51.020;6.764;2023-04-25T15:00:50;19.50;48.60
11838;DHT22;5978;51.020;6.764;2023-04-25T15:03:16;18.60;49.10
11838;DHT22;5978;51.020;6.764;2023-04-25T15:05:43;17.80;50.20
11838;DHT22;5978;51.020;6.764;2023-04-25T15:08:09;18.00;51.10
11838;DHT22;5978;51.020;6.764;2023-04-25T15:10:36;19.80;51.80
11838;DHT22;5978;51.020;6.764;2023-04-25T15:13:03;20.90;50.50
11838;DHT22;5978;51.020;6.764;2023-04-25T15:15:29;22.00;48.90
11838;DHT22;5978;51.020;6.764;2023-04-25T15:17:55;22.90;48.10
11838;DHT22;5978;51.020;6.764;2023-04-25T15:20:22;23.60;46.70
11838;DHT22;5978;51.020;6.764;2023-04-25T15:22:48;23.60;46.60
11838;DHT22;5978;51.020;6.764;2023-04-25T15:25:15;23.30;46.80
11838;DHT22;5978;51.020;6.764;2023-04-25T15:27:43;22.10;46.50
11838;DHT22;5978;51.020;6.764;2023-04-25T15:30:12;20.40;47.70
11838;DHT22;5978;51.020;6.764;2023-04-25T15:32:39;19.40;49.30
11838;DHT22;5978;51.020;6.764;2023-04-25T15:35:06;18.00;50.90
11838;DHT22;5978;51.020;6.764;2023-04-25T15:37:33;17.20;53.10
11838;DHT22;5978;51.020;6.764;2023-04-25T15:40:10;16.70;54.60
11838;DHT22;5978;51.020;6.764;2023-04-25T15:42:42;16.20;54.30
11838;DHT22;5978;51.020;6.764;2023-04-25T15:45:10;15.60;53.20
11838;DHT22;5978;51.020;6.764;2023-04-25T15:47:37;15.40;52.90
11838;DHT22;5978;51.020;6.764;2023-04-25T15:50:05;15.30;52.80
11838;DHT22;5978;51.020;6.764;2023-04-25T15:52:33;15.40;53.20
11838;DHT22;5978;51.020;6.764;2023-04-25T15:54:59;15.50;54.10
11838;DHT22;5978;51.020;6.764;2023-04-25T15:57:26;15.70;53.80
11838;DHT22;5978;51.020;6.764;2023-04-25T15:59:51;15.90;54.20